Time;durP1;ratioP1;P1;durP2;ratioP2;P2;SDS_P1;SDS_P2;PMS_P1;PMS_P2;Temp;Humidity;BMP_temperature;BMP_pressure;BME280_temperature;BME280_humidity;BME280_pressure;Samples;Min_cycle;Max_cycle;Signal;HPM_P1;HPM_P2
2022/03/15 00:01:35;;;;;;;13.03;11.73;;;7.10;1.00;7.50;101791.00;;;;4982639;28;20490;-78
2022/03/15 00:04:05;;;;;;;16.50;13.20;;;7.20;1.00;7.50;101791.00;;;;4981642;28;20462;-77
2022/03/15 00:06:37;;;;;;;14.20;11.97;;;7.20;1.00;7.50;101791.00;;;;4999073;28;20474;-79
2022/03/15 00:09:05;;;;;;;13.33;11.13;;;7.10;1.00;7.40;101778.00;;;;4982238;28;20534;-78
2022/03/15 00:11:34;;;;;;;19.03;12.27;;;7.10;1.00;7.40;101772.00;;;;4999112;28;20446;-77
2022/03/15 00:14:08;;;;;;;12.70;11.17;;;7.00;1.00;7.40;101769.00;;;;4981241;28;20517;-77
2022/03/15 00:16:37;;;;;;;16.17;12.30;;;7.00;1.00;7.50;101772.00;;;;4982248;28;20561;-77
2022/03/15 00:19:06;;;;;;;14.00;11.17;;;7.00;1.00;7.50;101750.00;;;;4982001;28;20453;-77
2022/03/15 00:21:35;;;;;;;14.20;11.53;;;7.40;1.00;7.50;101773.00;;;;4982862;28;20474;-75
2022/03/15 00:24:05;;;;;;;14.50;12.23;;;7.00;1.00;7.50;101777.00;;;;4983329;28;20477;-78
2022/03/15 00:26:34;;;;;;;13.93;11.73;;;7.10;1.00;7.40;101796.00;;;;4991857;28;20474;-78
2022/03/15 00:29:06;;;;;;;15.50;11.97;;;7.10;1.00;7.40;101772.00;;;;4980528;28;21014;-77
2022/03/15 00:31:35;;;;;;;18.07;14.83;;;7.00;1.00;7.40;101766.00;;;;4991534;28;20469;-78
2022/03/15 00:34:04;;;;;;;17.63;15.50;;;7.00;1.00;7.30;101765.00;;;;4992368;28;20466;-78
2022/03/15 00:36:37;;;;;;;19.97;15.60;;;7.00;1.00;7.40;101779.00;;;;4987374;28;20475;-79
2022/03/15 00:39:06;;;;;;;14.93;13.30;;;7.00;1.00;7.50;101747.00;;;;4980474;28;20473;-78
2022/03/15 00:41:36;;;;;;;21.00;16.77;;;7.00;1.00;7.40;101775.00;;;;4990253;28;20485;-76
2022/03/15 00:44:05;;;;;;;23.60;16.60;;;7.10;1.00;7.40;101772.00;;;;4974363;28;20466;-78
2022/03/15 00:46:33;;;;;;;23.03;17.33;;;7.00;1.00;7.40;101750.00;;;;4989787;28;20482;-77
2022/03/15 00:49:02;;;;;;;17.00;15.00;;;7.00;1.00;7.40;101760.00;;;;4988254;28;20486;-75
2022/03/15 00:51:34;;;;;;;19.40;15.57;;;7.10;1.00;7.40;101755.00;;;;4982720;28;20482;-76
2022/03/15 00:54:03;;;;;;;19.60;15.50;;;7.10;1.00;7.50;101772.00;;;;4982767;28;20568;-77
2022/03/15 00:56:31;;;;;;;20.20;15.30;;;7.10;1.00;7.50;101775.00;;;;4981012;28;20469;-75
2022/03/15 00:59:00;;;;;;;16.20;13.40;;;7.10;1.00;7.50;101770.00;;;;4982553;28;20464;-78
2022/03/15 01:01:29;;;;;;;19.87;15.50;;;7.10;1.00;7.40;101748.00;;;;4982680;28;20481;-76
2022/03/15 01:03:58;;;;;;;14.07;12.57;;;7.10;1.00;7.50;101770.00;;;;4998128;28;20454;-78
2022/03/15 01:06:26;;;;;;;17.37;13.13;;;7.10;1.00;7.50;101782.00;;;;4975823;28;20485;-77
2022/03/15 01:08:56;;;;;;;19.60;12.40;;;7.10;1.00;7.50;101766.00;;;;4986999;28;20821;-79
2022/03/15 01:11:24;;;;;;;15.23;12.30;;;7.10;1.00;7.50;101768.00;;;;4983334;28;20462;-76
2022/03/15 01:13:52;;;;;;;11.53;10.20;;;7.10;1.00;7.50;101754.00;;;;4998184;28;20454;-76
2022/03/15 01:16:23;;;;;;;12.57;9.97;;;7.10;1.00;7.50;101769.00;;;;4986557;28;20461;-78
2022/03/15 01:18:51;;;;;;;12.73;9.57;;;7.10;1.00;7.40;101749.00;;;;4977299;28;20464;-76
2022/03/15 01:21:20;;;;;;;11.47;8.90;;;7.10;1.00;7.30;101748.00;;;;4979995;28;20470;-77
2022/03/15 01:23:48;;;;;;;13.77;11.30;;;7.00;1.00;7.30;101711.00;;;;4987174;28;20974;-78
2022/03/15 01:26:20;;;;;;;16.20;13.03;;;7.20;1.00;7.30;101752.00;;;;4983604;28;20462;-76
2022/03/15 01:28:53;;;;;;;15.33;13.77;;;6.70;1.00;7.30;101714.00;;;;4985657;28;20479;-76
2022/03/15 01:31:22;;;;;;;16.13;12.77;;;7.00;1.00;7.30;101748.00;;;;4984675;28;21335;-78
2022/03/15 01:33:50;;;;;;;12.10;10.50;;;6.90;1.00;7.30;101739.00;;;;4985745;28;20526;-79
2022/03/15 01:36:18;;;;;;;12.43;10.40;;;6.90;1.00;7.30;101733.00;;;;4988557;28;20557;-77
2022/03/15 01:38:48;;;;;;;11.90;10.50;;;6.90;1.00;7.20;101732.00;;;;5017771;28;20449;-78
2022/03/15 01:41:16;;;;;;;10.80;9.70;;;6.90;1.00;7.30;101722.00;;;;5004830;28;20838;-75
2022/03/15 01:43:49;;;;;;;12.20;8.80;;;6.90;1.00;7.30;101730.00;;;;5011230;28;20481;-75
2022/03/15 01:46:18;;;;;;;15.97;9.80;;;6.90;1.00;7.30;101728.00;;;;5014015;28;20526;-78
2022/03/15 01:48:46;;;;;;;11.30;10.03;;;6.90;1.00;7.30;101709.00;;;;5013696;28;20470;-77
2022/03/15 01:51:17;;;;;;;11.43;10.20;;;6.90;1.00;7.30;101733.00;;;;5003082;28;20493;-75
2022/03/15 01:53:45;;;;;;;13.17;10.00;;;6.90;1.00;7.30;101717.00;;;;4993481;28;20477;-75
2022/03/15 01:56:13;;;;;;;11.70;9.47;;;6.90;1.00;7.20;101741.00;;;;4989945;28;20458;-76
2022/03/15 01:58:42;;;;;;;13.03;9.40;;;6.90;1.00;7.20;101731.00;;;;4991505;28;20591;-75
2022/03/15 02:01:12;;;;;;;10.87;9.20;;;6.90;1.00;7.30;101734.00;;;;4998830;28;20463;-75
2022/03/15 02:03:40;;;;;;;12.07;10.30;;;6.80;1.00;7.30;101731.00;;;;4999406;28;20463;-75
2022/03/15 02:06:09;;;;;;;15.70;11.90;;;6.90;1.00;7.20;101735.00;;;;4979379;28;20465;-76
2022/03/15 02:08:38;;;;;;;15.20;11.73;;;6.80;1.00;7.20;101722.00;;;;4985703;28;20466;-77
2022/03/15 02:11:08;;;;;;;13.50;10.70;;;6.80;1.00;7.10;101713.00;;;;4998624;28;20458;-77
2022/03/15 02:13:37;;;;;;;14.43;11.40;;;6.80;1.00;7.10;101730.00;;;;4989007;28;20533;-76
2022/03/15 02:16:07;;;;;;;14.70;12.60;;;6.80;1.00;7.20;101727.00;;;;4986440;28;20970;-78
2022/03/15 02:18:38;;;;;;;12.93;10.47;;;6.80;1.00;7.20;67857.00;;;;4987098;28;20454;-76
2022/03/15 02:21:08;;;;;;;12.83;10.60;;;6.80;1.00;7.20;101715.00;;;;4985176;28;20455;-76
2022/03/15 02:23:37;;;;;;;14.00;10.60;;;6.80;1.00;7.10;101725.00;;;;4981340;28;20469;-80
2022/03/15 02:26:05;;;;;;;13.13;11.30;;;6.70;1.00;7.10;101716.00;;;;4983274;28;20466;-76
2022/03/15 02:28:34;;;;;;;12.20;11.00;;;6.80;1.00;7.20;101721.00;;;;4983254;28;20456;-76
2022/03/15 02:31:02;;;;;;;12.20;10.37;;;6.80;1.00;7.20;101724.00;;;;4981335;28;20465;-76
2022/03/15 02:33:30;;;;;;;16.63;11.50;;;6.90;1.00;7.20;101691.00;;;;4983725;28;20461;-76
2022/03/15 02:35:58;;;;;;;12.23;10.33;;;6.90;1.00;7.20;101692.00;;;;4996962;28;20458;-75
2022/03/15 02:38:28;;;;;;;13.10;10.63;;;7.10;1.00;7.20;101701.00;;;;4982847;28;21006;-77
2022/03/15 02:40:56;;;;;;;13.67;10.97;;;6.90;1.00;7.20;101710.00;;;;4998030;28;21408;-77
2022/03/15 02:43:25;;;;;;;11.97;10.50;;;6.80;1.00;7.10;101719.00;;;;4983682;28;20485;-76
2022/03/15 02:45:53;;;;;;;14.50;10.63;;;6.80;1.00;7.10;101701.00;;;;4984107;28;20574;-75
2022/03/15 02:48:21;;;;;;;12.10;10.33;;;6.80;1.00;7.10;101707.00;;;;4980254;28;20475;-77
2022/03/15 02:50:49;;;;;;;13.83;10.67;;;6.80;1.00;7.10;101682.00;;;;4980026;28;20835;-77
2022/03/15 02:53:19;;;;;;;15.60;10.93;;;7.00;1.00;7.10;101696.00;;;;4999436;28;20453;-78
2022/03/15 02:55:49;;;;;;;10.93;9.37;;;6.80;1.00;7.10;101698.00;;;;4984455;28;20938;-77
2022/03/15 02:58:19;;;;;;;10.90;9.37;;;6.80;1.00;7.10;101706.00;;;;4982290;28;20593;-77
2022/03/15 03:00:47;;;;;;;10.17;9.13;;;6.80;1.00;7.10;101718.00;;;;4987222;28;20463;-77
2022/03/15 03:03:16;;;;;;;14.17;9.80;;;6.80;1.00;7.10;101703.00;;;;4985778;28;20478;-77
2022/03/15 03:05:45;;;;;;;13.27;10.77;;;6.80;1.00;7.10;101698.00;;;;4983292;28;21380;-76
2022/03/15 03:08:16;;;;;;;19.00;11.47;;;6.80;1.00;217.30;159740.00;;;;4985189;28;20862;-74
2022/03/15 03:10:44;;;;;;;12.20;9.43;;;6.80;1.00;7.20;101687.00;;;;4984968;28;20501;-77
2022/03/15 03:13:13;;;;;;;9.97;9.03;;;6.80;1.00;7.10;101693.00;;;;4984834;28;20478;-78
2022/03/15 03:15:43;;;;;;;11.10;9.47;;;6.80;1.00;7.10;101706.00;;;;4993171;28;20493;-76
2022/03/15 03:18:11;;;;;;;13.47;9.40;;;6.80;1.00;7.10;67821.00;;;;4985677;28;20545;-76
2022/03/15 03:20:40;;;;;;;14.37;9.60;;;6.80;1.00;7.10;101687.00;;;;4996467;28;20475;-77
2022/03/15 03:23:08;;;;;;;11.80;9.90;;;6.80;1.00;7.10;67845.00;;;;5006085;28;20477;-77
2022/03/15 03:25:36;;;;;;;10.93;9.90;;;6.80;1.00;7.20;101676.00;;;;5006587;28;20459;-77
2022/03/15 03:28:06;;;;;;;12.97;9.70;;;6.80;1.00;7.10;101681.00;;;;5005796;28;20481;-77
2022/03/15 03:30:37;;;;;;;11.37;9.77;;;6.80;1.00;7.20;101673.00;;;;4992620;28;20531;-76
2022/03/15 03:33:05;;;;;;;9.60;8.60;;;6.90;1.00;7.20;101687.00;;;;4990112;28;20450;-77
2022/03/15 03:35:34;;;;;;;10.20;8.00;;;6.90;1.00;7.20;101676.00;;;;4988851;28;20462;-75
2022/03/15 03:38:05;;;;;;;12.53;8.93;;;6.90;1.00;7.20;101671.00;;;;4983494;28;20528;-76
2022/03/15 03:40:34;;;;;;;10.43;8.93;;;6.80;1.00;7.10;101670.00;;;;4985910;28;20481;-77
2022/03/15 03:43:02;;;;;;;11.00;9.63;;;6.80;1.00;7.10;101677.00;;;;4986754;28;20482;-79
2022/03/15 03:45:31;;;;;;;10.57;8.43;;;6.80;1.00;7.10;67837.00;;;;4983093;28;20802;-76
2022/03/15 03:48:01;;;;;;;13.47;9.13;;;6.80;1.00;7.10;101672.00;;;;4986092;28;20844;-77
2022/03/15 03:50:29;;;;;;;11.80;8.07;;;6.80;1.00;7.10;101641.00;;;;4985796;28;20451;-77
2022/03/15 03:52:58;;;;;;;9.93;8.93;;;6.80;1.00;7.10;101656.00;;;;5008948;28;20534;-77
2022/03/15 03:55:27;;;;;;;8.90;7.83;;;6.60;1.00;7.10;101629.00;;;;5008811;28;20466;-77
2022/03/15 03:57:56;;;;;;;9.23;7.93;;;6.80;1.00;7.20;101656.00;;;;5006998;28;20478;-76
2022/03/15 04:00:24;;;;;;;11.90;8.40;;;6.80;1.00;7.20;101670.00;;;;4993132;28;20998;-76
2022/03/15 04:02:54;;;;;;;11.70;8.10;;;6.90;1.00;7.10;101660.00;;;;4986899;28;20471;-76
2022/03/15 04:05:25;;;;;;;10.43;8.47;;;6.90;1.00;7.10;101680.00;;;;4999839;28;21035;-75
2022/03/15 04:07:54;;;;;;;12.90;9.50;;;6.80;1.00;7.10;101665.00;;;;4983701;28;20496;-77
2022/03/15 04:10:23;;;;;;;9.27;8.37;;;6.80;1.00;7.10;101669.00;;;;4982802;28;20462;-76
2022/03/15 04:12:51;;;;;;;9.40;8.43;;;6.80;1.00;7.20;101667.00;;;;4981877;28;20468;-76
2022/03/15 04:15:20;;;;;;;14.37;8.87;;;6.80;1.00;7.10;101662.00;;;;4981802;28;20934;-76
2022/03/15 04:17:48;;;;;;;12.00;8.60;;;6.80;1.00;7.20;101662.00;;;;4983135;28;21124;-75
2022/03/15 04:20:16;;;;;;;9.03;8.13;;;6.80;1.00;7.10;101672.00;;;;4980461;28;20455;-76
2022/03/15 04:22:46;;;;;;;11.53;8.97;;;6.90;1.00;7.10;101672.00;;;;4981686;28;20478;-76
2022/03/15 04:25:15;;;;;;;11.93;8.20;;;6.80;1.00;7.10;101668.00;;;;4982319;28;20454;-75
2022/03/15 04:27:43;;;;;;;11.60;8.37;;;6.80;1.00;7.20;101664.00;;;;4995220;28;21301;-75
2022/03/15 04:30:12;;;;;;;11.93;9.17;;;6.80;1.00;7.10;101656.00;;;;4980176;28;20463;-76
2022/03/15 04:32:40;;;;;;;9.37;8.37;;;6.80;1.00;7.10;101686.00;;;;4979845;28;20462;-76
2022/03/15 04:35:09;;;;;;;9.50;8.00;;;6.80;1.00;7.10;101659.00;;;;4981389;28;20458;-77
2022/03/15 04:37:37;;;;;;;8.67;7.77;;;6.80;1.00;7.20;101677.00;;;;4982319;28;20478;-76
2022/03/15 04:40:09;;;;;;;9.07;7.60;;;6.80;1.00;7.20;101687.00;;;;4983811;28;20458;-75
2022/03/15 04:42:42;;;;;;;9.90;7.00;;;6.90;1.00;7.20;101666.00;;;;4985402;28;20514;-75
2022/03/15 04:45:11;;;;;;;8.20;7.40;;;6.90;1.00;7.20;101659.00;;;;4984075;28;20477;-76
2022/03/15 04:47:40;;;;;;;10.60;7.80;;;6.80;1.00;7.10;101651.00;;;;4984780;28;20529;-77
2022/03/15 04:50:10;;;;;;;9.80;7.57;;;6.80;1.00;7.10;101641.00;;;;4984332;28;20462;-76
2022/03/15 04:52:39;;;;;;;10.33;8.03;;;6.80;1.00;7.10;101636.00;;;;4982265;28;20526;-75
2022/03/15 04:55:09;;;;;;;8.93;8.03;;;6.80;1.00;7.00;101618.00;;;;4985881;28;20465;-76
2022/03/15 04:57:37;;;;;;;10.17;7.50;;;6.70;1.00;6.90;101633.00;;;;4983421;28;20489;-78
2022/03/15 05:00:09;;;;;;;9.70;8.00;;;6.60;1.00;6.90;101649.00;;;;4983071;28;20458;-79
2022/03/15 05:02:41;;;;;;;9.47;8.47;;;6.60;1.00;6.90;101653.00;;;;4984896;28;20466;-78
2022/03/15 05:05:12;;;;;;;13.67;8.17;;;6.60;1.00;7.00;101648.00;;;;4984578;28;20516;-76
2022/03/15 05:07:42;;;;;;;10.53;7.90;;;6.60;1.00;7.00;101599.00;;;;4984102;28;20482;-78
2022/03/15 05:13:14;;;;;;;10.20;7.87;;;6.70;1.00;7.10;101316.00;;;;4963202;28;21002;-77
2022/03/15 05:15:42;;;;;;;9.80;7.80;;;6.70;1.00;7.10;101635.00;;;;4963793;28;20455;-78
2022/03/15 05:18:11;;;;;;;10.23;9.17;;;6.80;1.00;7.10;101624.00;;;;4970849;28;20513;-75
2022/03/15 05:20:39;;;;;;;9.70;7.63;;;6.80;1.00;7.10;101633.00;;;;4984842;28;20462;-74
2022/03/15 05:23:07;;;;;;;10.13;7.30;;;6.80;1.00;7.10;101629.00;;;;4983493;28;20723;-75
2022/03/15 05:25:37;;;;;;;9.50;8.13;;;6.80;1.00;7.10;101628.00;;;;4970272;28;20490;-77
2022/03/15 05:28:08;;;;;;;10.13;7.40;;;6.80;1.00;7.10;101627.00;;;;4985372;28;20928;-77
2022/03/15 05:30:37;;;;;;;8.67;7.77;;;6.80;1.00;7.10;101633.00;;;;4986479;28;20447;-75
2022/03/15 05:33:05;;;;;;;15.10;8.27;;;6.80;1.00;7.20;67818.00;;;;4986682;28;20465;-75
2022/03/15 05:35:34;;;;;;;11.63;9.00;;;6.80;1.00;7.10;101590.00;;;;4987534;28;20461;-75
2022/03/15 05:38:04;;;;;;;10.50;8.20;;;6.80;1.00;7.20;101638.00;;;;4986083;28;20524;-75
2022/03/15 05:40:33;;;;;;;11.10;8.73;;;6.80;1.00;7.30;101613.00;;;;4985774;28;20529;-74
2022/03/15 05:43:02;;;;;;;12.40;9.07;;;6.90;1.00;7.10;101500.00;;;;4988970;28;20462;-78
2022/03/15 05:45:31;;;;;;;12.83;8.53;;;6.90;1.00;7.10;101627.00;;;;4986469;28;20993;-76
2022/03/15 05:47:59;;;;;;;13.33;9.03;;;6.80;1.00;217.30;159734.00;;;;4983482;28;20478;-78
2022/03/15 05:50:28;;;;;;;12.07;8.70;;;6.80;1.00;7.10;101618.00;;;;4984029;28;20463;-77
2022/03/15 05:52:57;;;;;;;10.00;8.10;;;6.80;1.00;7.10;101643.00;;;;4983419;28;20459;-75
2022/03/15 05:55:25;;;;;;;10.47;8.60;;;6.80;1.00;7.20;101631.00;;;;4983659;28;20875;-77
2022/03/15 05:57:53;;;;;;;11.20;8.53;;;7.00;1.00;7.20;101646.00;;;;4982830;28;20490;-77
2022/03/15 06:00:23;;;;;;;11.90;7.37;;;6.80;1.00;7.20;101630.00;;;;4983646;28;20723;-76
2022/03/15 06:02:51;;;;;;;10.40;7.43;;;6.90;1.00;7.20;101624.00;;;;4997961;28;20481;-78
2022/03/15 06:05:20;;;;;;;10.07;7.70;;;7.20;1.00;7.30;101621.00;;;;4987081;28;21113;-77
2022/03/15 06:07:51;;;;;;;14.20;8.73;;;6.90;1.00;7.30;101631.00;;;;5008570;28;20565;-78
2022/03/15 06:10:23;;;;;;;13.73;7.77;;;6.90;1.00;7.30;101627.00;;;;4999547;28;21007;-78
2022/03/15 06:12:52;;;;;;;8.93;7.40;;;7.00;1.00;7.30;101622.00;;;;5003094;28;20470;-77
2022/03/15 06:15:21;;;;;;;10.50;7.57;;;7.00;1.00;7.30;101605.00;;;;5001818;28;20482;-78
2022/03/15 06:17:56;;;;;;;9.00;7.33;;;7.00;1.00;7.30;101605.00;;;;4993008;28;20561;-76
2022/03/15 06:20:26;;;;;;;11.13;8.73;;;7.00;1.00;7.20;101609.00;;;;5004133;28;21437;-75
2022/03/15 06:22:59;;;;;;;12.67;7.40;;;7.00;1.00;7.30;101590.00;;;;4987805;28;20455;-76
2022/03/15 06:25:30;;;;;;;10.43;7.60;;;7.00;1.00;7.10;101612.00;;;;4986248;28;20506;-75
2022/03/15 06:27:58;;;;;;;11.00;7.90;;;7.00;1.00;7.10;101601.00;;;;5001521;28;21008;-75
2022/03/15 06:30:27;;;;;;;8.73;7.67;;;6.90;1.00;7.20;101620.00;;;;4986899;28;20476;-78
2022/03/15 06:32:57;;;;;;;11.83;8.83;;;6.90;1.00;7.40;101597.00;;;;4985149;28;20463;-77
2022/03/15 06:35:26;;;;;;;9.90;8.70;;;7.00;1.00;7.40;101604.00;;;;4985626;28;20474;-76
2022/03/15 06:37:55;;;;;;;10.10;8.80;;;7.00;1.00;7.50;101596.00;;;;4984460;28;20497;-76
2022/03/15 06:40:25;;;;;;;12.90;8.07;;;7.10;1.00;7.50;101598.00;;;;4983491;28;20557;-79
2022/03/15 06:42:54;;;;;;;9.73;8.30;;;7.20;1.00;7.60;101595.00;;;;4983762;28;20477;-76
2022/03/15 06:45:23;;;;;;;9.27;8.30;;;7.30;1.00;7.70;101600.00;;;;4983473;28;20490;-75
2022/03/15 06:47:52;;;;;;;11.93;8.83;;;7.40;1.00;7.80;101580.00;;;;4981703;28;20485;-77
2022/03/15 06:50:23;;;;;;;9.60;8.10;;;7.50;1.00;7.80;101582.00;;;;4985357;28;20556;-76
2022/03/15 06:52:51;;;;;;;8.20;7.40;;;7.50;1.00;7.80;101582.00;;;;4984403;28;20454;-79
2022/03/15 06:55:19;;;;;;;8.30;7.43;;;7.60;1.00;8.00;101571.00;;;;4984377;28;20466;-77
2022/03/15 06:57:48;;;;;;;11.53;7.80;;;7.60;1.00;8.00;101580.00;;;;4981374;28;20493;-75
2022/03/15 07:00:17;;;;;;;9.63;7.67;;;7.70;1.00;8.20;101569.00;;;;4998790;28;20470;-77
2022/03/15 07:02:45;;;;;;;11.20;8.00;;;7.80;1.00;8.30;101578.00;;;;4983006;28;20474;-76
2022/03/15 07:05:14;;;;;;;10.50;8.80;;;8.00;1.00;8.50;101578.00;;;;4997440;28;20478;-77
2022/03/15 07:07:43;;;;;;;9.47;8.07;;;8.20;1.00;8.60;101575.00;;;;4998163;28;20482;-76
2022/03/15 07:10:17;;;;;;;16.37;7.93;;;8.30;1.00;8.60;101566.00;;;;4983554;28;20461;-76
2022/03/15 07:12:47;;;;;;;9.10;6.73;;;8.40;1.00;8.70;101581.00;;;;4981607;28;20484;-77
2022/03/15 07:15:16;;;;;;;8.90;7.47;;;8.50;1.00;8.70;101585.00;;;;4983576;28;20462;-75
2022/03/15 07:17:52;;;;;;;10.57;7.40;;;8.50;1.00;8.90;101578.00;;;;4982207;28;20476;-76
2022/03/15 07:20:21;;;;;;;11.10;7.13;;;8.60;1.00;8.90;101589.00;;;;4983532;28;20450;-76
2022/03/15 07:22:51;;;;;;;12.20;7.33;;;8.70;1.00;9.00;101568.00;;;;4981415;28;20462;-77
2022/03/15 07:25:20;;;;;;;8.67;6.73;;;8.80;1.00;9.10;101577.00;;;;4983136;28;20475;-77
2022/03/15 07:27:50;;;;;;;10.37;7.23;;;8.90;1.00;9.20;101522.00;;;;4980001;28;20493;-75
2022/03/15 07:30:18;;;;;;;13.77;6.53;;;9.00;1.00;9.30;101574.00;;;;4983877;28;20467;-75
2022/03/15 07:32:47;;;;;;;12.63;6.67;;;9.10;1.00;9.30;101576.00;;;;4980300;28;20469;-76
2022/03/15 07:35:16;;;;;;;10.87;6.67;;;9.10;1.00;9.50;101579.00;;;;4981916;28;20455;-76
2022/03/15 07:37:55;;;;;;;10.53;7.00;;;9.60;1.00;9.70;101577.00;;;;4983027;28;20486;-76
2022/03/15 07:40:26;;;;;;;9.13;6.87;;;9.40;1.00;9.70;101572.00;;;;4983914;28;20467;-75
2022/03/15 07:42:54;;;;;;;13.30;7.27;;;9.60;1.00;9.80;101570.00;;;;4982403;28;20855;-75
2022/03/15 07:45:23;;;;;;;11.07;6.90;;;9.60;1.00;9.70;101550.00;;;;4983632;28;20494;-75
2022/03/15 07:47:52;;;;;;;10.70;7.90;;;9.60;1.00;9.80;101566.00;;;;4992011;28;20478;-75
2022/03/15 07:50:20;;;;;;;11.90;7.07;;;9.60;1.00;9.80;101557.00;;;;4992643;28;21183;-76
2022/03/15 07:52:50;;;;;;;7.50;5.60;;;9.60;1.00;9.80;101549.00;;;;4984909;28;20463;-75
2022/03/15 07:55:20;;;;;;;11.63;6.37;;;9.70;1.00;9.90;101550.00;;;;4991504;28;20473;-74
2022/03/15 07:57:49;;;;;;;9.70;5.43;;;9.70;1.00;10.00;101548.00;;;;5002856;28;20486;-75
2022/03/15 08:00:17;;;;;;;13.00;6.63;;;9.80;1.00;10.10;101544.00;;;;5004144;28;20496;-75
2022/03/15 08:02:46;;;;;;;8.90;6.63;;;10.00;1.00;10.10;101534.00;;;;4999696;28;20471;-75
2022/03/15 08:05:14;;;;;;;10.10;6.10;;;10.00;1.00;10.20;101537.00;;;;4986262;28;20482;-74
2022/03/15 08:07:43;;;;;;;6.10;5.50;;;10.00;1.00;10.20;101528.00;;;;4982137;28;20482;-75
2022/03/15 08:10:12;;;;;;;8.07;4.80;;;10.00;1.00;10.20;101523.00;;;;5002767;28;21067;-76
2022/03/15 08:12:43;;;;;;;8.80;5.67;;;10.00;1.00;10.20;101492.00;;;;4982727;28;20552;-75
2022/03/15 08:15:12;;;;;;;11.17;6.10;;;10.10;1.00;10.40;101516.00;;;;4981277;28;21153;-75
2022/03/15 08:17:42;;;;;;;9.90;6.17;;;10.20;1.00;10.40;101541.00;;;;4981160;28;20530;-75
2022/03/15 08:20:14;;;;;;;10.20;5.93;;;10.30;1.00;10.50;101515.00;;;;4974488;28;20975;-75
2022/03/15 08:22:43;;;;;;;7.97;6.30;;;10.40;1.00;10.60;101533.00;;;;4982218;28;20933;-75
2022/03/15 08:25:11;;;;;;;6.53;5.40;;;10.80;1.00;10.50;101512.00;;;;4981926;28;21229;-75
2022/03/15 08:27:42;;;;;;;8.77;5.23;;;10.40;1.00;10.50;101509.00;;;;4983411;28;20486;-75
2022/03/15 08:30:11;;;;;;;8.10;5.83;;;10.40;1.00;10.50;101499.00;;;;4994069;28;20550;-76
2022/03/15 08:32:39;;;;;;;10.40;5.53;;;10.30;1.00;10.50;101508.00;;;;4998370;28;20475;-76
2022/03/15 08:35:09;;;;;;;10.87;5.73;;;10.30;1.00;10.40;101493.00;;;;4991838;28;20468;-75
2022/03/15 08:37:38;;;;;;;8.60;5.00;;;10.20;1.00;10.40;101496.00;;;;5000151;28;20574;-76
2022/03/15 08:40:08;;;;;;;9.70;6.27;;;10.20;1.00;10.50;101496.00;;;;5006240;28;20454;-75
2022/03/15 08:42:37;;;;;;;7.13;5.50;;;10.30;1.00;10.50;101472.00;;;;5003405;28;20576;-75
2022/03/15 08:45:09;;;;;;;6.60;5.40;;;10.30;1.00;10.50;101481.00;;;;4983616;28;20482;-77
2022/03/15 08:47:38;;;;;;;8.80;5.83;;;10.30;1.00;10.50;101470.00;;;;4984202;28;20478;-77
2022/03/15 08:50:09;;;;;;;8.67;6.50;;;10.30;1.00;10.60;101496.00;;;;4985651;28;20460;-76
2022/03/15 08:52:37;;;;;;;7.03;5.93;;;10.40;1.00;10.80;101496.00;;;;4983142;28;20470;-75
2022/03/15 08:55:07;;;;;;;9.73;5.47;;;10.60;1.00;11.00;101499.00;;;;4983889;28;20481;-75
2022/03/15 08:57:36;;;;;;;7.20;6.00;;;10.70;1.00;11.10;101461.00;;;;4982163;28;20478;-76
2022/03/15 09:00:08;;;;;;;8.40;6.30;;;11.30;1.00;11.20;101455.00;;;;4981262;28;20469;-76
2022/03/15 09:02:36;;;;;;;11.30;6.10;;;11.10;1.00;11.30;101477.00;;;;4980667;28;20473;-76
2022/03/15 09:05:06;;;;;;;9.90;7.60;;;11.20;1.00;11.30;101477.00;;;;4980736;28;20589;-75
2022/03/15 09:07:36;;;;;;;9.33;5.80;;;11.10;1.00;11.30;101443.00;;;;4978627;28;21423;-76
2022/03/15 09:10:05;;;;;;;8.23;7.13;;;11.20;1.00;11.40;101446.00;;;;4982712;28;20457;-76
2022/03/15 09:12:34;;;;;;;12.23;6.60;;;11.20;1.00;11.40;101487.00;;;;4983085;28;20458;-76
2022/03/15 09:15:02;;;;;;;9.97;7.03;;;11.20;1.00;11.50;101477.00;;;;4983068;28;20520;-76
2022/03/15 09:17:32;;;;;;;12.13;7.67;;;11.30;1.00;11.60;101472.00;;;;4981596;28;21015;-76
2022/03/15 09:20:20;;;;;;;8.30;6.60;;;11.40;1.00;11.70;101445.00;;;;4982966;28;20451;-76
2022/03/15 09:22:49;;;;;;;9.67;7.50;;;11.50;1.00;11.80;101463.00;;;;4987039;28;21490;-76
2022/03/15 09:25:18;;;;;;;9.60;7.00;;;11.70;1.00;11.80;101463.00;;;;4983114;28;20475;-76
2022/03/15 09:27:47;;;;;;;8.97;6.90;;;11.70;1.00;11.90;101441.00;;;;4984902;28;20514;-75
2022/03/15 09:30:16;;;;;;;11.80;6.53;;;11.80;1.00;11.90;101452.00;;;;4984930;28;20565;-75
2022/03/15 09:32:45;;;;;;;12.00;6.53;;;11.80;1.00;11.70;101447.00;;;;4981664;28;20545;-75
2022/03/15 09:35:14;;;;;;;10.87;7.37;;;11.70;1.00;11.70;101446.00;;;;4985623;28;20465;-75
2022/03/15 09:37:45;;;;;;;15.57;6.70;;;11.60;1.00;11.70;101417.00;;;;4999617;28;21018;-74
2022/03/15 09:40:15;;;;;;;9.53;6.90;;;11.60;1.00;11.70;101404.00;;;;4985768;28;20534;-75
2022/03/15 09:42:46;;;;;;;7.53;6.70;;;11.60;1.00;11.60;101435.00;;;;4982520;28;20454;-74
2022/03/15 09:45:17;;;;;;;8.27;6.53;;;11.60;1.00;11.50;101425.00;;;;4990814;28;20845;-76
2022/03/15 09:47:56;;;;;;;15.83;7.30;;;11.40;1.00;11.50;101439.00;;;;4984043;28;20481;-74
2022/03/15 09:50:26;;;;;;;10.30;6.60;;;11.40;1.00;11.40;101409.00;;;;4983957;28;20472;-74
2022/03/15 09:52:58;;;;;;;8.73;6.57;;;11.40;1.00;11.40;101409.00;;;;4986073;28;20443;-75
2022/03/15 09:55:27;;;;;;;8.50;6.80;;;11.30;1.00;11.40;101411.00;;;;4985449;28;20462;-75
2022/03/15 09:57:56;;;;;;;11.60;7.00;;;11.30;1.00;11.40;101430.00;;;;4984771;28;20485;-75
2022/03/15 10:00:25;;;;;;;8.53;7.17;;;11.30;1.00;11.40;101412.00;;;;4986874;28;20459;-75
2022/03/15 10:02:55;;;;;;;9.43;7.60;;;11.30;1.00;11.30;101388.00;;;;4985857;28;20447;-75
2022/03/15 10:05:24;;;;;;;9.53;6.40;;;11.20;1.00;11.30;101400.00;;;;4984582;28;20449;-75
2022/03/15 10:07:54;;;;;;;13.37;7.00;;;11.20;1.00;11.30;101392.00;;;;4981859;28;20477;-74
2022/03/15 10:10:24;;;;;;;20.00;8.73;;;11.10;1.00;11.10;101403.00;;;;4998947;28;20457;-74
2022/03/15 10:12:53;;;;;;;8.60;6.57;;;11.00;1.00;11.10;101388.00;;;;4982972;28;20458;-74
2022/03/15 10:15:22;;;;;;;12.73;6.97;;;11.00;1.00;11.00;101377.00;;;;4985391;28;20550;-75
2022/03/15 10:17:55;;;;;;;22.30;9.57;;;10.90;1.00;11.00;101385.00;;;;4982619;28;20557;-74
2022/03/15 10:20:28;;;;;;;9.40;6.50;;;10.60;1.00;11.00;101395.00;;;;4990723;28;20469;-75
2022/03/15 10:23:00;;;;;;;11.93;6.90;;;10.90;1.00;11.00;101395.00;;;;5001293;28;20448;-74
2022/03/15 10:25:35;;;;;;;7.43;6.70;;;10.80;1.00;11.00;101407.00;;;;5017637;28;20485;-75
2022/03/15 10:28:06;;;;;;;11.83;7.27;;;10.80;1.00;10.80;101397.00;;;;4989987;28;20563;-73
2022/03/15 10:30:37;;;;;;;9.70;7.10;;;10.80;1.00;10.70;101404.00;;;;5002434;28;20459;-74
2022/03/15 10:33:08;;;;;;;8.03;6.80;;;10.60;1.00;10.60;101391.00;;;;5021439;28;20545;-75
2022/03/15 10:35:40;;;;;;;8.70;7.73;;;10.50;1.00;10.60;101396.00;;;;5007681;28;21364;-74
2022/03/15 10:38:09;;;;;;;9.83;7.40;;;10.50;1.00;10.50;101393.00;;;;5019794;28;20563;-74
2022/03/15 10:40:40;;;;;;;11.70;8.70;;;10.50;1.00;10.40;101380.00;;;;5005724;28;20526;-75
2022/03/15 10:43:13;;;;;;;10.60;8.17;;;10.30;1.00;10.10;101368.00;;;;4999646;28;20453;-73
2022/03/15 10:45:45;;;;;;;10.17;7.60;;;10.10;1.00;10.00;101360.00;;;;4987904;28;20642;-74
2022/03/15 10:48:19;;;;;;;11.57;8.70;;;9.90;1.00;10.00;101365.00;;;;4988889;28;20478;-74
2022/03/15 10:50:53;;;;;;;11.03;9.33;;;9.90;1.00;9.90;101364.00;;;;4990365;28;20470;-74
2022/03/15 10:53:23;;;;;;;13.13;10.33;;;9.80;1.00;9.90;101355.00;;;;4995202;28;20467;-74
2022/03/15 10:55:51;;;;;;;13.00;10.97;;;9.70;1.00;9.90;101350.00;;;;4995623;28;20463;-73
2022/03/15 10:58:24;;;;;;;13.33;9.60;;;9.70;1.00;9.90;101345.00;;;;5006662;28;20485;-74
2022/03/15 11:00:57;;;;;;;13.77;11.97;;;10.10;1.00;9.70;101360.00;;;;5014707;28;20554;-73
2022/03/15 11:03:29;;;;;;;14.40;9.90;;;9.60;1.00;9.60;101369.00;;;;5006492;28;20499;-73
2022/03/15 11:06:08;;;;;;;16.37;10.90;;;9.40;1.00;9.40;101367.00;;;;5009989;28;20550;-75
2022/03/15 11:08:39;;;;;;;10.53;9.50;;;9.30;1.00;9.40;101360.00;;;;4992326;28;20522;-73
2022/03/15 11:11:08;;;;;;;13.20;10.90;;;9.20;1.00;9.40;101361.00;;;;4992286;28;20509;-75